Latest Weather Observations for Roseworthy

IDS60901

Issued at 1:05 pm CST Friday 19 September 2014 (issued every 10 minutes, with the page automatically refreshed every 10 minutes)

About weather observations | Map of Adelaide area stations | Latest observations for Adelaide area | Other Formats
Station Details ID: 023122 Name: ROSEWORTHY AWS Lat: -34.51 Lon: 138.68 Height: 65.0 m
Data from the previous 72 hours. | See also: Recent months at Roseworthy
Date/Time
CST
Tmp

°C
App
Tmp
°C
Dew
Point
°C
Rel
Hum
%
Delta-T

°C
Wind Press
QNH
hPa
Press
MSL
hPa
Rain
since
9 am
mm
Dir
 
Spd
km/h
Gust
km/h
Spd
kts
Gust
kts
19/01:00pm 18.7 14.2 2.1 33 7.6 N 15 24 8 13 1023.4 - 0.0
19/12:30pm 18.7 14.4 3.3 36 7.2 NE 15 22 8 12 1023.9 - 0.0
19/12:00pm 18.3 14.8 3.4 37 6.9 NNE 11 20 6 11 1024.2 1024.2 0.0
19/11:30am 18.6 13.6 3.6 37 7.1 NE 19 28 10 15 1024.6 - 0.0
19/11:00am 17.7 12.6 3.9 40 6.5 ENE 20 30 11 16 1024.9 - 0.0
19/10:30am 16.8 10.8 3.5 41 6.2 ENE 24 32 13 17 1025.2 - 0.0
19/10:00am 15.9 9.6 4.0 45 5.5 NE 26 35 14 19 1025.5 - 0.0
19/09:30am 14.9 8.7 4.3 49 4.9 ENE 26 35 14 19 1025.7 - 0.0
19/09:00am 13.4 7.4 5.3 58 3.8 ENE 26 35 14 19 1025.7 1025.7 0.0
19/08:30am 12.0 7.0 6.5 69 2.6 ENE 22 30 12 16 1025.6 - 0.0
19/08:00am 10.1 5.5 6.6 79 1.6 ENE 20 30 11 16 1025.3 - 0.0
19/07:30am 8.2 4.1 6.0 86 1.0 E 17 22 9 12 1025.2 - 0.0
19/07:00am 5.1 2.1 3.9 92 0.5 E 9 13 5 7 1025.0 - 0.0
19/06:30am 2.8 -0.6 1.9 94 0.4 E 9 11 5 6 1024.9 - 0.0
19/06:00am 0.9 -2.4 -0.2 92 0.4 E 7 9 4 5 1024.6 1024.6 0.0
19/05:30am 0.4 -3.0 -0.9 91 0.5 NE 7 9 4 5 1024.3 - 0.0
19/05:00am 1.1 -2.2 -0.1 92 0.4 E 7 9 4 5 1024.2 - 0.0
19/04:30am 1.2 -2.1 0.0 92 0.4 ENE 7 9 4 5 1024.0 - 0.0
19/04:00am 1.5 -2.1 0.3 92 0.4 NE 9 11 5 6 1024.0 - 0.0
19/03:30am 1.3 -2.4 0.1 92 0.4 NE 9 11 5 6 1024.1 - 0.0
19/03:00am 1.5 -2.1 0.3 92 0.4 ENE 9 11 5 6 1024.2 1024.2 0.0
19/02:30am 1.4 -2.7 0.1 91 0.5 ENE 11 11 6 6 1024.3 - 0.0
19/02:00am 1.7 -1.6 0.1 89 0.6 ENE 7 9 4 5 1024.6 - 0.0
19/01:30am 2.6 -0.9 1.1 90 0.6 E 9 11 5 6 1024.6 - 0.0
19/01:00am 3.5 0.5 2.0 90 0.6 ENE 7 7 4 4 1024.9 - 0.0
19/12:30am 4.5 1.7 3.0 90 0.6 ESE 7 11 4 6 1025.0 - 0.0
19/12:00am 4.8 2.0 3.3 90 0.6 E 7 9 4 5 1025.2 1025.2 0.0
 
Date/Time
CST
Tmp

°C
App
Tmp
°C
Dew
Point
°C
Rel
Hum
%
Delta-T

°C
Wind Press
QNH
hPa
Press
MSL
hPa
Rain
since
9 am
mm
Dir
 
Spd
km/h
Gust
km/h
Spd
kts
Gust
kts
18/11:30pm 5.4 2.9 3.9 90 0.6 NE 6 7 3 4 1025.5 - 0.0
18/11:00pm 5.5 2.8 3.7 88 0.8 NNE 7 9 4 5 1025.5 - 0.0
18/10:30pm 6.4 3.5 4.4 87 0.9 ESE 9 9 5 5 1025.5 - 0.0
18/10:00pm 7.4 4.3 5.4 87 0.9 ESE 11 13 6 7 1025.5 - 0.0
18/09:30pm 7.6 4.5 5.6 87 0.9 ESE 11 13 6 7 1025.7 - 0.0
18/09:00pm 7.4 4.7 5.4 87 0.9 ESE 9 11 5 6 1025.6 1025.6 0.0
18/08:30pm 8.3 5.3 6.1 86 1.0 SE 11 13 6 7 1025.7 - 0.0
18/08:00pm 8.2 7.3 6.2 87 0.9 CALM 0 0 0 0 1025.6 - 0.0
18/07:30pm 9.5 7.6 6.9 84 1.2 S 6 9 3 5 1025.4 - 0.0
18/07:00pm 10.3 8.4 7.4 82 1.4 SE 7 11 4 6 1025.0 - 0.0
18/06:30pm 10.6 7.8 7.1 79 1.7 SSE 11 13 6 7 1024.9 - 0.0
18/06:00pm 11.5 8.9 7.6 77 1.9 S 11 13 6 7 1024.7 1024.7 0.0
18/05:30pm 12.5 9.7 7.0 69 2.7 S 11 15 6 8 1024.6 - 0.0
18/05:00pm 12.8 10.3 6.4 65 3.1 SSE 9 11 5 6 1024.4 - 0.0
18/04:30pm 13.4 10.7 5.8 60 3.6 S 9 13 5 7 1024.3 - 0.0
18/04:00pm 13.3 9.9 5.9 61 3.5 SSW 13 17 7 9 1024.1 - 0.0
18/03:30pm 13.4 9.9 7.0 65 3.1 SSW 15 22 8 12 1024.1 - 0.0
18/03:00pm 13.0 8.6 6.6 65 3.1 SSW 19 26 10 14 1024.3 1024.3 0.0
18/02:30pm 14.6 11.3 6.2 57 4.0 SW 13 20 7 11 1024.3 - 0.0
18/02:00pm 14.5 10.8 6.1 57 4.0 SSW 15 20 8 11 1024.5 - 0.0
18/01:30pm 14.1 10.0 4.4 52 4.5 SW 15 20 8 11 1024.7 - 0.0
18/01:00pm 14.2 10.5 4.5 52 4.5 SSW 13 24 7 13 1024.6 - 0.0
18/12:30pm 14.9 11.8 3.7 47 5.1 SW 9 15 5 8 1024.9 - 0.0
18/12:00pm 14.7 11.5 5.0 52 4.5 SSW 11 17 6 9 1025.2 1025.2 0.0
18/11:30am 14.0 10.7 4.3 52 4.5 S 11 15 6 8 1025.4 - 0.0
18/11:00am 14.1 10.8 4.4 52 4.5 SSW 11 15 6 8 1025.7 - 0.0
18/10:30am 13.9 11.1 3.1 48 4.8 S 7 13 4 7 1025.9 - 0.0
18/10:00am 13.4 10.9 3.8 52 4.4 NE 6 9 3 5 1026.4 - 0.0
18/09:30am 12.3 10.8 5.2 62 3.3 SSE 2 7 1 4 1026.7 - 0.0
18/09:00am 10.8 8.9 6.7 76 1.9 E 6 9 3 5 1026.9 1026.9 0.0
18/08:30am 8.3 6.0 5.9 85 1.1 E 7 9 4 5 1026.7 - 0.0
18/08:00am 6.6 3.7 4.8 88 0.8 ENE 9 11 5 6 1026.3 - 0.0
18/07:30am 5.2 2.5 3.9 91 0.5 E 7 9 4 5 1026.2 - 0.0
18/07:00am 3.8 1.1 2.6 92 0.5 SE 6 7 3 4 1025.9 - 0.0
18/06:30am 2.9 -0.2 1.6 91 0.5 ENE 7 11 4 6 1025.5 - 0.0
18/06:00am 3.0 -1.6 1.5 90 0.6 NE 15 17 8 9 1024.9 1024.9 0.0
18/05:30am 3.1 -1.9 1.6 90 0.6 NE 17 19 9 10 1024.7 - 0.0
18/05:00am 3.0 -1.9 1.8 92 0.5 NE 17 20 9 11 1024.6 - 0.0
18/04:30am 1.8 -1.8 0.5 91 0.5 NE 9 11 5 6 1024.6 - 0.0
18/04:00am 2.1 -2.2 0.9 92 0.5 NNE 13 15 7 8 1024.4 - 0.0
18/03:30am 1.9 -2.8 0.7 92 0.4 NE 15 17 8 9 1024.5 - 0.0
18/03:00am 1.5 -3.3 0.5 93 0.4 NE 15 17 8 9 1024.7 1024.7 0.0
18/02:30am 0.5 -4.0 -0.6 92 0.4 NE 13 15 7 8 1024.9 - 0.0
18/02:00am 0.2 -3.6 -1.1 91 0.5 NE 9 11 5 6 1025.2 - 0.0
18/01:30am 0.2 -4.0 -1.1 91 0.5 N 11 13 6 7 1025.3 - 0.0
18/01:00am 0.2 -4.4 -1.1 91 0.5 NE 13 15 7 8 1025.2 - 0.0
18/12:30am 0.5 -3.7 -0.9 90 0.5 NE 11 13 6 7 1025.4 - 0.0
18/12:00am 0.8 -3.4 -0.6 90 0.5 NE 11 13 6 7 1025.2 1025.2 0.0
 
Date/Time
CST
Tmp

°C
App
Tmp
°C
Dew
Point
°C
Rel
Hum
%
Delta-T

°C
Wind Press
QNH
hPa
Press
MSL
hPa
Rain
since
9 am
mm
Dir
 
Spd
km/h
Gust
km/h
Spd
kts
Gust
kts
17/11:30pm 1.3 -3.2 0.0 91 0.5 NE 13 13 7 7 1025.1 - 0.0
17/11:00pm 1.3 -2.8 -0.2 90 0.5 NE 11 13 6 7 1025.2 - 0.0
17/10:30pm 1.5 -2.6 0.0 90 0.5 ENE 11 13 6 7 1025.0 - 0.0
17/10:00pm 1.6 -2.1 0.1 90 0.6 E 9 11 5 6 1024.9 - 0.0
17/09:30pm 2.0 -1.6 0.4 89 0.6 ENE 9 11 5 6 1024.9 - 0.0
17/09:00pm 2.6 -0.6 0.8 88 0.7 ENE 7 9 4 5 1024.6 1024.6 0.0
17/08:30pm 3.2 -0.3 1.4 88 0.7 NNE 9 17 5 9 1024.4 - 0.0
17/08:00pm 4.2 1.2 1.9 85 0.9 WNW 7 9 4 5 1023.9 - 0.0
17/07:30pm 5.3 2.4 2.8 84 1.0 WSW 7 9 4 5 1023.5 - 0.0
17/07:00pm 6.2 3.4 3.0 80 1.3 SW 7 9 4 5 1023.1 - 0.0
17/06:30pm 8.8 5.7 3.8 71 2.2 SW 9 11 5 6 1022.7 - 0.0
17/06:00pm 10.8 7.5 4.3 64 2.9 SSW 11 13 6 7 1022.6 1022.7 0.0
17/05:30pm 13.0 8.8 3.9 54 4.1 SSW 15 20 8 11 1022.4 - 0.0
17/05:00pm 14.2 9.2 3.7 49 4.8 SSW 19 26 10 14 1022.2 - 0.0
17/04:30pm 15.0 9.9 4.1 48 5.0 SW 20 28 11 15 1022.0 - 0.0
17/04:00pm 15.4 10.2 3.5 45 5.5 SSW 20 28 11 15 1021.7 - 0.0
17/03:30pm 15.6 9.8 2.4 41 5.9 SW 22 32 12 17 1021.5 - 0.0
17/03:00pm 16.2 10.6 3.3 42 5.9 SSW 22 35 12 19 1021.4 1021.5 0.0
17/02:30pm 16.3 10.8 4.0 44 5.7 SW 22 30 12 16 1021.4 - 0.0
17/02:00pm 15.8 10.0 4.5 47 5.3 SSW 24 35 13 19 1021.5 - 0.0
17/01:30pm 16.4 11.4 4.4 45 5.6 SW 20 32 11 17 1021.6 - 0.0
17/01:00pm 15.9 10.3 5.5 50 5.0 SW 24 35 13 19 1021.6 - 0.0
17/12:30pm 16.2 10.7 6.1 51 4.9 SSW 24 32 13 17 1021.7 - 0.0
17/12:00pm 15.4 9.9 5.9 53 4.6 SSW 24 33 13 18 1021.8 1021.9 0.0
17/11:30am 16.3 11.7 6.7 53 4.7 SW 20 30 11 16 1021.7 - 0.0
17/11:00am 15.9 10.8 6.1 52 4.8 SW 22 32 12 17 1021.6 - 0.0
17/10:30am 14.9 9.8 6.2 56 4.2 SW 22 35 12 19 1021.8 - 0.0
17/10:00am 14.0 9.5 6.8 62 3.5 WSW 20 28 11 15 1021.8 - 0.0
17/09:30am 14.3 9.3 6.4 59 3.8 WSW 22 30 12 16 1021.6 - 0.0
17/09:00am 13.1 10.2 8.0 71 2.5 W 13 17 7 9 1021.5 1021.6 0.0
17/08:30am 12.4 10.6 9.4 82 1.5 W 9 13 5 7 1021.3 - 0.0
17/08:00am 11.0 9.1 8.9 87 1.0 NW 9 11 5 6 1021.1 - 0.0
17/07:30am 8.6 6.3 7.4 92 0.6 NNW 9 13 5 7 1020.7 - 0.0
17/07:00am 8.0 5.2 7.1 94 0.4 N 11 15 6 8 1020.2 - 0.0
17/06:30am 5.7 2.0 4.5 92 0.5 N 13 15 7 8 1019.9 - 0.0
17/06:00am 6.2 2.9 4.8 91 0.6 NNW 11 13 6 7 1019.6 1019.7 0.0
17/05:30am 6.9 4.2 5.7 92 0.5 N 9 11 5 6 1019.3 - 0.0
17/05:00am 6.6 3.4 5.2 91 0.6 NNW 11 15 6 8 1019.1 - 0.0
17/04:30am 6.9 3.8 5.5 91 0.6 NNW 11 13 6 7 1018.9 - 0.0
17/04:00am 6.5 3.3 5.3 92 0.5 NNW 11 13 6 7 1018.7 - 0.0
17/03:30am 5.4 1.6 4.1 91 0.6 NNW 13 13 7 7 1018.7 - 0.0
17/03:00am 5.8 2.1 4.3 90 0.6 NNW 13 13 7 7 1018.5 1018.6 0.0
17/02:30am 6.7 3.1 5.2 90 0.7 N 13 13 7 7 1018.7 - 0.0
17/02:00am 7.2 4.1 5.5 89 0.8 N 11 15 6 8 1018.8 - 0.0
17/01:30am 7.6 5.3 5.9 89 0.8 W 7 9 4 5 1019.0 - 0.0
17/01:00am 7.5 4.8 5.8 89 0.8 WNW 9 11 5 6 1019.2 - 0.0
17/12:30am 7.9 4.9 6.0 88 0.9 WNW 11 11 6 6 1019.4 - 0.0
17/12:00am 8.7 6.3 6.8 88 0.9 W 9 11 5 6 1019.6 1019.7 0.0
 
Date/Time
CST
Tmp

°C
App
Tmp
°C
Dew
Point
°C
Rel
Hum
%
Delta-T

°C
Wind Press
QNH
hPa
Press
MSL
hPa
Rain
since
9 am
mm
Dir
 
Spd
km/h
Gust
km/h
Spd
kts
Gust
kts
16/11:30pm 8.6 5.8 6.9 89 0.8 W 11 13 6 7 1019.5 - 0.0
16/11:00pm 8.3 5.9 6.8 90 0.7 W 9 11 5 6 1019.5 - 0.0
16/10:30pm 8.2 5.8 6.8 91 0.7 W 9 11 5 6 1019.5 - 0.0
16/10:00pm 7.8 4.9 6.3 90 0.7 W 11 11 6 6 1019.4 - 0.0
16/09:30pm 7.9 5.7 6.2 89 0.8 WNW 7 9 4 5 1019.1 - 0.0
16/09:00pm 8.8 6.4 7.1 89 0.8 W 9 9 5 5 1018.9 1019.0 0.0
16/08:30pm 9.6 7.3 7.5 87 1.0 W 9 11 5 6 1018.7 - 0.0
16/08:00pm 10.7 8.7 8.6 87 1.0 W 9 9 5 5 1018.4 - 0.0
16/07:30pm 11.2 9.6 8.6 84 1.3 W 7 9 4 5 1018.2 - 0.0
16/07:00pm 11.6 8.9 8.8 83 1.4 SW 13 20 7 11 1017.9 - 0.0
16/06:30pm 11.8 10.4 9.7 87 1.1 SSW 7 9 4 5 1017.5 - 0.0
16/06:00pm 12.2 9.7 9.8 85 1.2 S 13 17 7 9 1017.2 1017.3 0.0
16/05:30pm 12.8 9.1 9.3 79 1.8 SSW 19 26 10 14 1017.1 - 0.0
16/05:00pm 14.0 10.6 9.0 72 2.5 SSW 17 24 9 13 1016.8 - 0.0
16/04:30pm 14.9 11.5 9.3 69 2.9 SSW 17 24 9 13 1016.6 - 0.0
16/04:00pm 14.4 9.6 8.8 69 2.8 SW 24 35 13 19 1016.6 - 0.0
16/03:30pm 16.4 12.3 6.0 50 5.1 SW 17 24 9 13 1016.2 - 0.0
16/03:00pm 17.1 13.1 6.6 50 5.2 SW 17 22 9 12 1016.2 1016.3 0.0
16/02:30pm 16.7 11.5 5.3 47 5.5 SW 22 33 12 18 1016.3 - 0.0
16/02:00pm 17.6 12.8 4.9 43 6.1 SSW 19 28 10 15 1016.3 - 0.0
16/01:30pm 18.1 13.0 3.9 39 6.7 W 20 30 11 16 1016.6 - 0.0

Latest Capital City Observations: Canberra | Sydney | Melbourne | Brisbane | Adelaide | Perth | Hobart | Darwin

Other Formats:

Comma delimited format used in spreadsheet applications
http://www.bom.gov.au/fwo/IDS60901/IDS60901.95671.axf

JavaScript Object Notation format (JSON) in row-major order
http://www.bom.gov.au/fwo/IDS60901/IDS60901.95671.json